sensor_id;sensor_type;location;lat;lon;timestamp;P1;durP1;ratioP1;P2;durP2;ratioP2
62014;SDS011;47970;52.396;9.586;2023-04-29T00:00:30;29.57;;;16.20;;
62014;SDS011;47970;52.396;9.586;2023-04-29T00:02:55;36.83;;;16.20;;
62014;SDS011;47970;52.396;9.586;2023-04-29T00:05:21;32.70;;;15.73;;
62014;SDS011;47970;52.396;9.586;2023-04-29T00:07:46;36.27;;;17.33;;
62014;SDS011;47970;52.396;9.586;2023-04-29T00:10:11;35.70;;;16.95;;
62014;SDS011;47970;52.396;9.586;2023-04-29T00:12:38;39.63;;;17.05;;
62014;SDS011;47970;52.396;9.586;2023-04-29T00:15:04;39.28;;;17.38;;
62014;SDS011;47970;52.396;9.586;2023-04-29T00:17:30;38.75;;;18.42;;
62014;SDS011;47970;52.396;9.586;2023-04-29T00:19:55;38.90;;;19.03;;
62014;SDS011;47970;52.396;9.586;2023-04-29T00:22:20;43.80;;;18.33;;
62014;SDS011;47970;52.396;9.586;2023-04-29T00:24:46;42.30;;;17.05;;
62014;SDS011;47970;52.396;9.586;2023-04-29T00:27:11;37.75;;;18.00;;
62014;SDS011;47970;52.396;9.586;2023-04-29T00:29:37;35.87;;;17.40;;
62014;SDS011;47970;52.396;9.586;2023-04-29T00:32:02;42.67;;;18.30;;
62014;SDS011;47970;52.396;9.586;2023-04-29T00:34:28;35.33;;;17.50;;
62014;SDS011;47970;52.396;9.586;2023-04-29T00:36:53;35.97;;;17.05;;
62014;SDS011;47970;52.396;9.586;2023-04-29T00:39:18;38.20;;;18.33;;
62014;SDS011;47970;52.396;9.586;2023-04-29T00:41:43;36.42;;;16.88;;
62014;SDS011;47970;52.396;9.586;2023-04-29T00:44:09;38.05;;;17.52;;
62014;SDS011;47970;52.396;9.586;2023-04-29T00:46:34;37.73;;;16.70;;
62014;SDS011;47970;52.396;9.586;2023-04-29T00:48:59;38.22;;;17.63;;
62014;SDS011;47970;52.396;9.586;2023-04-29T00:51:25;40.40;;;17.95;;
62014;SDS011;47970;52.396;9.586;2023-04-29T00:53:50;35.63;;;15.93;;
62014;SDS011;47970;52.396;9.586;2023-04-29T00:56:15;36.63;;;17.30;;
62014;SDS011;47970;52.396;9.586;2023-04-29T00:58:41;35.63;;;17.30;;
62014;SDS011;47970;52.396;9.586;2023-04-29T01:01:13;30.63;;;15.15;;
62014;SDS011;47970;52.396;9.586;2023-04-29T01:03:38;37.53;;;16.40;;
62014;SDS011;47970;52.396;9.586;2023-04-29T01:14:07;34.38;;;16.30;;
62014;SDS011;47970;52.396;9.586;2023-04-29T01:16:20;31.60;;;15.00;;
62014;SDS011;47970;52.396;9.586;2023-04-29T01:18:53;32.00;;;14.68;;
62014;SDS011;47970;52.396;9.586;2023-04-29T01:21:19;34.13;;;15.32;;
62014;SDS011;47970;52.396;9.586;2023-04-29T01:23:44;29.23;;;14.18;;
62014;SDS011;47970;52.396;9.586;2023-04-29T01:26:09;28.45;;;14.15;;
62014;SDS011;47970;52.396;9.586;2023-04-29T01:33:43;25.88;;;13.27;;
62014;SDS011;47970;52.396;9.586;2023-04-29T01:41:16;29.07;;;13.73;;
62014;SDS011;47970;52.396;9.586;2023-04-29T01:43:42;25.90;;;12.63;;
62014;SDS011;47970;52.396;9.586;2023-04-29T01:46:08;28.23;;;14.40;;
62014;SDS011;47970;52.396;9.586;2023-04-29T01:48:34;34.60;;;15.35;;
62014;SDS011;47970;52.396;9.586;2023-04-29T01:50:59;32.67;;;15.02;;
62014;SDS011;47970;52.396;9.586;2023-04-29T01:53:25;27.40;;;13.73;;
62014;SDS011;47970;52.396;9.586;2023-04-29T01:55:50;30.48;;;13.85;;
62014;SDS011;47970;52.396;9.586;2023-04-29T01:58:15;26.23;;;13.70;;
62014;SDS011;47970;52.396;9.586;2023-04-29T02:00:41;24.90;;;14.07;;
62014;SDS011;47970;52.396;9.586;2023-04-29T02:03:06;28.73;;;13.85;;
62014;SDS011;47970;52.396;9.586;2023-04-29T02:05:31;23.53;;;12.27;;
62014;SDS011;47970;52.396;9.586;2023-04-29T02:07:58;25.40;;;13.55;;
62014;SDS011;47970;52.396;9.586;2023-04-29T02:10:23;24.95;;;12.77;;
62014;SDS011;47970;52.396;9.586;2023-04-29T02:12:48;21.87;;;12.30;;
62014;SDS011;47970;52.396;9.586;2023-04-29T02:15:14;25.47;;;12.97;;
62014;SDS011;47970;52.396;9.586;2023-04-29T02:17:39;24.50;;;12.77;;
62014;SDS011;47970;52.396;9.586;2023-04-29T02:20:05;25.85;;;14.73;;
62014;SDS011;47970;52.396;9.586;2023-04-29T02:22:30;24.80;;;13.52;;
62014;SDS011;47970;52.396;9.586;2023-04-29T02:24:55;28.57;;;15.47;;
62014;SDS011;47970;52.396;9.586;2023-04-29T02:27:22;30.08;;;16.08;;
62014;SDS011;47970;52.396;9.586;2023-04-29T02:29:47;24.67;;;14.02;;
62014;SDS011;47970;52.396;9.586;2023-04-29T02:32:12;27.97;;;15.10;;
62014;SDS011;47970;52.396;9.586;2023-04-29T02:34:39;33.22;;;16.30;;
62014;SDS011;47970;52.396;9.586;2023-04-29T02:37:05;33.60;;;15.50;;
62014;SDS011;47970;52.396;9.586;2023-04-29T02:39:30;30.43;;;15.87;;
62014;SDS011;47970;52.396;9.586;2023-04-29T02:41:55;27.88;;;13.98;;
62014;SDS011;47970;52.396;9.586;2023-04-29T02:44:21;30.52;;;14.05;;
62014;SDS011;47970;52.396;9.586;2023-04-29T02:46:46;28.98;;;14.05;;
62014;SDS011;47970;52.396;9.586;2023-04-29T02:49:12;28.98;;;13.75;;
62014;SDS011;47970;52.396;9.586;2023-04-29T02:51:37;25.95;;;13.55;;
62014;SDS011;47970;52.396;9.586;2023-04-29T02:54:03;27.35;;;13.95;;
62014;SDS011;47970;52.396;9.586;2023-04-29T02:56:28;23.57;;;13.77;;
62014;SDS011;47970;52.396;9.586;2023-04-29T02:58:57;27.88;;;14.15;;
62014;SDS011;47970;52.396;9.586;2023-04-29T03:01:22;30.40;;;15.15;;
62014;SDS011;47970;52.396;9.586;2023-04-29T03:03:48;26.17;;;14.98;;
62014;SDS011;47970;52.396;9.586;2023-04-29T03:06:13;25.20;;;14.77;;
62014;SDS011;47970;52.396;9.586;2023-04-29T03:08:39;23.38;;;14.02;;
62014;SDS011;47970;52.396;9.586;2023-04-29T03:11:05;22.20;;;15.20;;
62014;SDS011;47970;52.396;9.586;2023-04-29T03:13:30;22.52;;;15.52;;
62014;SDS011;47970;52.396;9.586;2023-04-29T03:15:55;23.73;;;16.07;;
62014;SDS011;47970;52.396;9.586;2023-04-29T03:18:22;25.20;;;15.45;;
62014;SDS011;47970;52.396;9.586;2023-04-29T03:20:47;26.70;;;15.82;;
62014;SDS011;47970;52.396;9.586;2023-04-29T03:23:13;31.20;;;17.33;;
62014;SDS011;47970;52.396;9.586;2023-04-29T03:25:38;30.90;;;17.50;;
62014;SDS011;47970;52.396;9.586;2023-04-29T03:28:03;29.05;;;18.25;;
62014;SDS011;47970;52.396;9.586;2023-04-29T03:30:28;30.23;;;18.60;;
62014;SDS011;47970;52.396;9.586;2023-04-29T03:32:54;29.70;;;17.40;;
62014;SDS011;47970;52.396;9.586;2023-04-29T03:35:19;31.23;;;18.98;;
62014;SDS011;47970;52.396;9.586;2023-04-29T03:37:44;31.15;;;19.23;;
62014;SDS011;47970;52.396;9.586;2023-04-29T03:40:10;34.33;;;20.10;;
62014;SDS011;47970;52.396;9.586;2023-04-29T03:42:35;33.25;;;18.95;;
62014;SDS011;47970;52.396;9.586;2023-04-29T03:45:01;34.45;;;19.60;;
62014;SDS011;47970;52.396;9.586;2023-04-29T03:47:26;30.02;;;18.35;;
62014;SDS011;47970;52.396;9.586;2023-04-29T03:49:51;29.93;;;17.90;;
62014;SDS011;47970;52.396;9.586;2023-04-29T03:52:17;36.78;;;19.95;;
62014;SDS011;47970;52.396;9.586;2023-04-29T03:54:42;30.10;;;18.73;;
62014;SDS011;47970;52.396;9.586;2023-04-29T03:57:07;35.65;;;19.38;;
62014;SDS011;47970;52.396;9.586;2023-04-29T03:59:33;32.20;;;18.90;;
62014;SDS011;47970;52.396;9.586;2023-04-29T04:01:58;36.77;;;20.70;;
62014;SDS011;47970;52.396;9.586;2023-04-29T04:04:23;40.63;;;22.07;;
62014;SDS011;47970;52.396;9.586;2023-04-29T04:06:48;39.88;;;21.60;;
62014;SDS011;47970;52.396;9.586;2023-04-29T04:09:17;46.92;;;23.70;;
62014;SDS011;47970;52.396;9.586;2023-04-29T04:11:42;43.10;;;23.45;;
62014;SDS011;47970;52.396;9.586;2023-04-29T04:14:08;47.08;;;24.60;;
62014;SDS011;47970;52.396;9.586;2023-04-29T04:16:33;47.23;;;25.33;;
62014;SDS011;47970;52.396;9.586;2023-04-29T04:18:58;46.33;;;23.37;;
62014;SDS011;47970;52.396;9.586;2023-04-29T04:21:23;50.17;;;25.37;;
62014;SDS011;47970;52.396;9.586;2023-04-29T04:23:49;47.13;;;23.83;;
62014;SDS011;47970;52.396;9.586;2023-04-29T04:26:15;48.88;;;24.50;;
62014;SDS011;47970;52.396;9.586;2023-04-29T04:28:40;48.72;;;24.17;;
62014;SDS011;47970;52.396;9.586;2023-04-29T04:31:05;49.33;;;26.23;;
62014;SDS011;47970;52.396;9.586;2023-04-29T04:33:30;52.07;;;25.30;;
62014;SDS011;47970;52.396;9.586;2023-04-29T04:35:56;47.85;;;25.33;;
62014;SDS011;47970;52.396;9.586;2023-04-29T04:38:21;46.97;;;24.57;;
62014;SDS011;47970;52.396;9.586;2023-04-29T04:40:49;48.28;;;24.50;;
62014;SDS011;47970;52.396;9.586;2023-04-29T04:43:14;45.83;;;24.03;;
62014;SDS011;47970;52.396;9.586;2023-04-29T04:45:39;48.78;;;24.92;;
62014;SDS011;47970;52.396;9.586;2023-04-29T04:48:05;49.70;;;26.07;;
62014;SDS011;47970;52.396;9.586;2023-04-29T04:50:30;45.80;;;24.48;;
62014;SDS011;47970;52.396;9.586;2023-04-29T04:52:56;46.77;;;25.47;;
62014;SDS011;47970;52.396;9.586;2023-04-29T04:55:21;43.95;;;24.25;;
62014;SDS011;47970;52.396;9.586;2023-04-29T04:57:46;53.33;;;26.00;;
62014;SDS011;47970;52.396;9.586;2023-04-29T05:00:12;44.05;;;23.90;;
62014;SDS011;47970;52.396;9.586;2023-04-29T05:02:37;49.65;;;23.45;;
62014;SDS011;47970;52.396;9.586;2023-04-29T05:05:03;42.10;;;22.77;;
62014;SDS011;47970;52.396;9.586;2023-04-29T05:07:28;42.72;;;23.48;;
62014;SDS011;47970;52.396;9.586;2023-04-29T05:09:53;39.30;;;22.10;;
62014;SDS011;47970;52.396;9.586;2023-04-29T05:12:18;39.30;;;22.60;;
62014;SDS011;47970;52.396;9.586;2023-04-29T05:14:43;39.43;;;21.93;;
62014;SDS011;47970;52.396;9.586;2023-04-29T05:17:09;46.97;;;22.85;;
62014;SDS011;47970;52.396;9.586;2023-04-29T05:19:35;37.83;;;21.17;;
62014;SDS011;47970;52.396;9.586;2023-04-29T05:22:00;37.80;;;20.08;;
62014;SDS011;47970;52.396;9.586;2023-04-29T05:24:25;37.20;;;19.73;;
62014;SDS011;47970;52.396;9.586;2023-04-29T05:26:51;36.90;;;20.38;;
62014;SDS011;47970;52.396;9.586;2023-04-29T05:29:18;35.22;;;18.83;;
62014;SDS011;47970;52.396;9.586;2023-04-29T05:31:43;38.03;;;19.43;;
62014;SDS011;47970;52.396;9.586;2023-04-29T05:34:08;31.77;;;18.87;;
62014;SDS011;47970;52.396;9.586;2023-04-29T05:36:33;32.27;;;18.07;;
62014;SDS011;47970;52.396;9.586;2023-04-29T05:38:58;34.47;;;19.03;;
62014;SDS011;47970;52.396;9.586;2023-04-29T05:41:24;31.07;;;18.07;;
62014;SDS011;47970;52.396;9.586;2023-04-29T05:43:49;28.40;;;15.90;;
62014;SDS011;47970;52.396;9.586;2023-04-29T05:46:14;29.30;;;17.08;;
62014;SDS011;47970;52.396;9.586;2023-04-29T05:48:40;29.50;;;16.95;;
62014;SDS011;47970;52.396;9.586;2023-04-29T05:51:06;33.92;;;17.08;;
62014;SDS011;47970;52.396;9.586;2023-04-29T05:53:31;32.38;;;16.67;;
62014;SDS011;47970;52.396;9.586;2023-04-29T05:55:57;28.88;;;16.75;;
62014;SDS011;47970;52.396;9.586;2023-04-29T05:58:22;28.75;;;16.13;;
62014;SDS011;47970;52.396;9.586;2023-04-29T06:00:47;32.20;;;16.67;;
62014;SDS011;47970;52.396;9.586;2023-04-29T06:03:13;32.60;;;16.23;;
62014;SDS011;47970;52.396;9.586;2023-04-29T06:05:38;30.60;;;15.98;;
62014;SDS011;47970;52.396;9.586;2023-04-29T06:08:04;29.37;;;15.27;;
62014;SDS011;47970;52.396;9.586;2023-04-29T06:10:29;28.95;;;15.57;;
62014;SDS011;47970;52.396;9.586;2023-04-29T06:12:56;26.75;;;15.57;;
62014;SDS011;47970;52.396;9.586;2023-04-29T06:15:21;28.83;;;15.23;;
62014;SDS011;47970;52.396;9.586;2023-04-29T06:17:46;23.60;;;14.53;;
62014;SDS011;47970;52.396;9.586;2023-04-29T06:20:12;26.88;;;14.32;;
62014;SDS011;47970;52.396;9.586;2023-04-29T06:22:37;28.37;;;14.17;;
62014;SDS011;47970;52.396;9.586;2023-04-29T06:25:03;21.83;;;13.03;;
62014;SDS011;47970;52.396;9.586;2023-04-29T06:27:28;24.80;;;13.75;;
62014;SDS011;47970;52.396;9.586;2023-04-29T06:29:53;25.47;;;13.33;;
62014;SDS011;47970;52.396;9.586;2023-04-29T06:32:18;24.27;;;13.33;;
62014;SDS011;47970;52.396;9.586;2023-04-29T06:34:44;23.83;;;13.87;;
62014;SDS011;47970;52.396;9.586;2023-04-29T06:37:09;24.73;;;14.40;;
62014;SDS011;47970;52.396;9.586;2023-04-29T06:39:34;22.77;;;13.15;;
62014;SDS011;47970;52.396;9.586;2023-04-29T06:42:00;19.57;;;12.87;;
62014;SDS011;47970;52.396;9.586;2023-04-29T06:44:25;26.60;;;14.77;;
62014;SDS011;47970;52.396;9.586;2023-04-29T06:46:51;24.70;;;12.85;;
62014;SDS011;47970;52.396;9.586;2023-04-29T06:49:17;21.88;;;12.90;;
62014;SDS011;47970;52.396;9.586;2023-04-29T06:51:42;21.02;;;12.13;;
62014;SDS011;47970;52.396;9.586;2023-04-29T06:54:07;22.92;;;12.50;;
62014;SDS011;47970;52.396;9.586;2023-04-29T06:56:32;20.27;;;11.98;;
62014;SDS011;47970;52.396;9.586;2023-04-29T06:58:58;20.57;;;11.40;;
62014;SDS011;47970;52.396;9.586;2023-04-29T07:01:23;21.58;;;11.88;;
62014;SDS011;47970;52.396;9.586;2023-04-29T07:03:48;19.63;;;11.73;;
62014;SDS011;47970;52.396;9.586;2023-04-29T07:06:13;16.87;;;10.83;;
62014;SDS011;47970;52.396;9.586;2023-04-29T07:08:38;19.70;;;11.37;;
62014;SDS011;47970;52.396;9.586;2023-04-29T07:11:04;17.93;;;10.67;;
62014;SDS011;47970;52.396;9.586;2023-04-29T07:13:29;17.83;;;10.20;;
62014;SDS011;47970;52.396;9.586;2023-04-29T07:15:54;16.87;;;9.93;;
62014;SDS011;47970;52.396;9.586;2023-04-29T07:18:19;15.77;;;10.17;;
62014;SDS011;47970;52.396;9.586;2023-04-29T07:20:44;18.27;;;10.18;;
62014;SDS011;47970;52.396;9.586;2023-04-29T07:23:11;19.17;;;10.68;;
62014;SDS011;47970;52.396;9.586;2023-04-29T07:25:37;14.37;;;9.70;;
62014;SDS011;47970;52.396;9.586;2023-04-29T07:28:02;15.75;;;9.40;;
62014;SDS011;47970;52.396;9.586;2023-04-29T07:30:27;17.97;;;8.90;;
62014;SDS011;47970;52.396;9.586;2023-04-29T07:32:53;15.60;;;9.13;;
62014;SDS011;47970;52.396;9.586;2023-04-29T07:35:18;13.82;;;8.68;;
62014;SDS011;47970;52.396;9.586;2023-04-29T07:37:43;13.23;;;8.80;;
62014;SDS011;47970;52.396;9.586;2023-04-29T07:40:09;16.02;;;8.38;;
62014;SDS011;47970;52.396;9.586;2023-04-29T07:42:35;16.95;;;8.65;;
62014;SDS011;47970;52.396;9.586;2023-04-29T07:45:00;13.30;;;8.07;;
62014;SDS011;47970;52.396;9.586;2023-04-29T07:47:25;13.73;;;8.57;;
62014;SDS011;47970;52.396;9.586;2023-04-29T07:49:51;18.48;;;8.90;;
62014;SDS011;47970;52.396;9.586;2023-04-29T07:52:16;11.55;;;8.18;;
62014;SDS011;47970;52.396;9.586;2023-04-29T07:54:42;14.23;;;8.27;;
62014;SDS011;47970;52.396;9.586;2023-04-29T07:57:07;12.17;;;8.27;;
62014;SDS011;47970;52.396;9.586;2023-04-29T07:59:32;13.03;;;8.17;;
62014;SDS011;47970;52.396;9.586;2023-04-29T08:01:57;15.40;;;7.77;;
62014;SDS011;47970;52.396;9.586;2023-04-29T08:04:23;12.27;;;7.70;;
62014;SDS011;47970;52.396;9.586;2023-04-29T08:06:48;14.85;;;8.25;;
62014;SDS011;47970;52.396;9.586;2023-04-29T08:09:14;13.05;;;8.23;;
62014;SDS011;47970;52.396;9.586;2023-04-29T08:11:40;11.38;;;7.30;;
62014;SDS011;47970;52.396;9.586;2023-04-29T08:14:05;11.48;;;7.47;;
62014;SDS011;47970;52.396;9.586;2023-04-29T08:16:30;8.98;;;6.45;;
62014;SDS011;47970;52.396;9.586;2023-04-29T08:18:56;11.23;;;7.65;;
62014;SDS011;47970;52.396;9.586;2023-04-29T08:21:21;9.88;;;6.85;;
62014;SDS011;47970;52.396;9.586;2023-04-29T08:23:46;11.30;;;7.63;;
62014;SDS011;47970;52.396;9.586;2023-04-29T08:26:11;13.07;;;7.03;;
62014;SDS011;47970;52.396;9.586;2023-04-29T08:28:37;10.73;;;6.10;;
62014;SDS011;47970;52.396;9.586;2023-04-29T08:31:02;12.60;;;7.00;;
62014;SDS011;47970;52.396;9.586;2023-04-29T08:33:30;10.93;;;6.03;;
62014;SDS011;47970;52.396;9.586;2023-04-29T08:35:58;11.50;;;6.18;;
62014;SDS011;47970;52.396;9.586;2023-04-29T08:38:24;13.20;;;6.93;;
62014;SDS011;47970;52.396;9.586;2023-04-29T08:40:49;10.00;;;6.00;;
62014;SDS011;47970;52.396;9.586;2023-04-29T08:43:14;13.82;;;6.70;;
62014;SDS011;47970;52.396;9.586;2023-04-29T08:45:40;16.40;;;7.38;;
62014;SDS011;47970;52.396;9.586;2023-04-29T08:48:06;8.43;;;6.00;;
62014;SDS011;47970;52.396;9.586;2023-04-29T08:50:37;11.27;;;6.60;;
62014;SDS011;47970;52.396;9.586;2023-04-29T08:53:05;9.23;;;6.43;;
62014;SDS011;47970;52.396;9.586;2023-04-29T08:55:33;11.75;;;6.30;;
62014;SDS011;47970;52.396;9.586;2023-04-29T08:57:59;10.73;;;6.43;;
62014;SDS011;47970;52.396;9.586;2023-04-29T09:00:25;14.52;;;7.22;;
62014;SDS011;47970;52.396;9.586;2023-04-29T09:02:52;8.85;;;5.97;;
62014;SDS011;47970;52.396;9.586;2023-04-29T09:05:20;8.02;;;5.57;;
62014;SDS011;47970;52.396;9.586;2023-04-29T09:07:45;11.88;;;6.15;;
62014;SDS011;47970;52.396;9.586;2023-04-29T09:10:11;13.40;;;6.95;;
62014;SDS011;47970;52.396;9.586;2023-04-29T09:12:37;10.98;;;6.28;;
62014;SDS011;47970;52.396;9.586;2023-04-29T09:15:02;8.13;;;5.60;;
62014;SDS011;47970;52.396;9.586;2023-04-29T09:17:37;12.85;;;6.20;;
62014;SDS011;47970;52.396;9.586;2023-04-29T09:20:15;9.77;;;5.97;;
62014;SDS011;47970;52.396;9.586;2023-04-29T09:22:49;11.48;;;6.78;;
62014;SDS011;47970;52.396;9.586;2023-04-29T09:25:14;10.73;;;6.30;;
62014;SDS011;47970;52.396;9.586;2023-04-29T09:27:39;14.40;;;7.40;;
62014;SDS011;47970;52.396;9.586;2023-04-29T09:30:05;11.75;;;6.47;;
62014;SDS011;47970;52.396;9.586;2023-04-29T09:32:30;9.93;;;5.82;;
62014;SDS011;47970;52.396;9.586;2023-04-29T09:34:55;12.23;;;6.77;;
62014;SDS011;47970;52.396;9.586;2023-04-29T09:37:24;13.53;;;7.33;;
62014;SDS011;47970;52.396;9.586;2023-04-29T09:39:51;13.43;;;7.72;;
62014;SDS011;47970;52.396;9.586;2023-04-29T09:42:16;13.85;;;8.52;;
62014;SDS011;47970;52.396;9.586;2023-04-29T09:44:42;12.05;;;7.65;;
62014;SDS011;47970;52.396;9.586;2023-04-29T09:47:08;14.32;;;7.50;;
62014;SDS011;47970;52.396;9.586;2023-04-29T09:49:34;11.32;;;7.57;;
62014;SDS011;47970;52.396;9.586;2023-04-29T09:52:04;13.45;;;7.63;;
62014;SDS011;47970;52.396;9.586;2023-04-29T09:54:30;12.05;;;7.80;;
62014;SDS011;47970;52.396;9.586;2023-04-29T09:56:56;12.98;;;8.07;;
62014;SDS011;47970;52.396;9.586;2023-04-29T09:59:22;14.95;;;8.90;;
62014;SDS011;47970;52.396;9.586;2023-04-29T10:01:49;14.20;;;7.97;;
62014;SDS011;47970;52.396;9.586;2023-04-29T10:04:15;15.52;;;8.10;;
62014;SDS011;47970;52.396;9.586;2023-04-29T10:06:41;15.73;;;8.20;;
62014;SDS011;47970;52.396;9.586;2023-04-29T10:09:07;13.18;;;7.97;;
62014;SDS011;47970;52.396;9.586;2023-04-29T10:11:32;14.38;;;7.32;;
62014;SDS011;47970;52.396;9.586;2023-04-29T10:13:58;13.23;;;7.03;;
62014;SDS011;47970;52.396;9.586;2023-04-29T10:16:27;13.60;;;7.45;;
62014;SDS011;47970;52.396;9.586;2023-04-29T10:18:54;12.13;;;6.78;;
62014;SDS011;47970;52.396;9.586;2023-04-29T10:21:21;11.48;;;6.55;;
62014;SDS011;47970;52.396;9.586;2023-04-29T10:23:48;15.80;;;7.57;;
62014;SDS011;47970;52.396;9.586;2023-04-29T10:26:14;10.93;;;6.80;;
62014;SDS011;47970;52.396;9.586;2023-04-29T10:28:40;15.32;;;6.78;;
62014;SDS011;47970;52.396;9.586;2023-04-29T10:31:06;11.48;;;6.78;;
62014;SDS011;47970;52.396;9.586;2023-04-29T10:33:32;10.57;;;6.15;;
62014;SDS011;47970;52.396;9.586;2023-04-29T10:35:59;13.02;;;5.53;;
62014;SDS011;47970;52.396;9.586;2023-04-29T10:40:50;11.63;;;6.10;;
62014;SDS011;47970;52.396;9.586;2023-04-29T10:43:21;12.98;;;5.78;;
62014;SDS011;47970;52.396;9.586;2023-04-29T10:45:47;10.52;;;5.43;;
62014;SDS011;47970;52.396;9.586;2023-04-29T10:48:12;11.03;;;5.30;;
62014;SDS011;47970;52.396;9.586;2023-04-29T10:53:12;13.18;;;5.60;;
62014;SDS011;47970;52.396;9.586;2023-04-29T10:55:40;8.40;;;4.97;;
62014;SDS011;47970;52.396;9.586;2023-04-29T10:58:32;9.15;;;5.32;;
62014;SDS011;47970;52.396;9.586;2023-04-29T11:00:57;10.15;;;5.80;;
62014;SDS011;47970;52.396;9.586;2023-04-29T11:06:07;8.45;;;5.80;;
62014;SDS011;47970;52.396;9.586;2023-04-29T11:08:33;8.15;;;5.30;;
62014;SDS011;47970;52.396;9.586;2023-04-29T11:11:03;12.65;;;5.80;;
62014;SDS011;47970;52.396;9.586;2023-04-29T11:13:29;10.20;;;5.80;;
62014;SDS011;47970;52.396;9.586;2023-04-29T11:16:05;12.38;;;6.22;;
62014;SDS011;47970;52.396;9.586;2023-04-29T11:18:30;9.90;;;5.80;;
62014;SDS011;47970;52.396;9.586;2023-04-29T11:23:33;11.65;;;5.30;;
62014;SDS011;47970;52.396;9.586;2023-04-29T11:25:59;12.80;;;5.80;;
62014;SDS011;47970;52.396;9.586;2023-04-29T11:28:26;10.32;;;5.25;;
62014;SDS011;47970;52.396;9.586;2023-04-29T11:30:51;10.63;;;6.05;;
62014;SDS011;47970;52.396;9.586;2023-04-29T11:33:18;15.63;;;6.13;;
62014;SDS011;47970;52.396;9.586;2023-04-29T11:35:43;14.95;;;5.80;;
62014;SDS011;47970;52.396;9.586;2023-04-29T11:38:08;10.40;;;5.57;;
62014;SDS011;47970;52.396;9.586;2023-04-29T11:40:34;10.07;;;5.28;;
62014;SDS011;47970;52.396;9.586;2023-04-29T11:42:59;9.63;;;4.80;;
62014;SDS011;47970;52.396;9.586;2023-04-29T11:45:24;8.43;;;4.70;;
62014;SDS011;47970;52.396;9.586;2023-04-29T11:47:50;10.45;;;5.18;;
62014;SDS011;47970;52.396;9.586;2023-04-29T11:50:17;11.55;;;4.65;;
62014;SDS011;47970;52.396;9.586;2023-04-29T11:52:45;8.43;;;5.05;;
62014;SDS011;47970;52.396;9.586;2023-04-29T11:55:11;8.43;;;5.05;;
62014;SDS011;47970;52.396;9.586;2023-04-29T11:57:36;9.88;;;5.47;;
62014;SDS011;47970;52.396;9.586;2023-04-29T12:00:02;6.75;;;4.43;;
62014;SDS011;47970;52.396;9.586;2023-04-29T12:02:32;7.38;;;4.60;;
62014;SDS011;47970;52.396;9.586;2023-04-29T12:04:58;11.65;;;5.25;;
62014;SDS011;47970;52.396;9.586;2023-04-29T12:07:24;8.40;;;4.72;;
62014;SDS011;47970;52.396;9.586;2023-04-29T12:09:50;7.03;;;3.97;;
62014;SDS011;47970;52.396;9.586;2023-04-29T12:12:15;8.90;;;3.65;;
62014;SDS011;47970;52.396;9.586;2023-04-29T12:14:41;7.28;;;3.35;;
62014;SDS011;47970;52.396;9.586;2023-04-29T12:17:07;8.93;;;4.25;;
62014;SDS011;47970;52.396;9.586;2023-04-29T12:19:33;9.27;;;4.35;;
62014;SDS011;47970;52.396;9.586;2023-04-29T12:21:59;8.10;;;4.72;;
62014;SDS011;47970;52.396;9.586;2023-04-29T12:24:24;11.77;;;4.93;;
62014;SDS011;47970;52.396;9.586;2023-04-29T12:26:50;8.53;;;4.73;;
62014;SDS011;47970;52.396;9.586;2023-04-29T12:29:15;7.85;;;4.10;;
62014;SDS011;47970;52.396;9.586;2023-04-29T12:31:40;9.23;;;5.33;;
62014;SDS011;47970;52.396;9.586;2023-04-29T12:34:06;6.90;;;4.13;;
62014;SDS011;47970;52.396;9.586;2023-04-29T12:36:32;9.95;;;4.28;;
62014;SDS011;47970;52.396;9.586;2023-04-29T12:38:58;8.80;;;3.83;;
62014;SDS011;47970;52.396;9.586;2023-04-29T12:41:37;14.98;;;4.32;;
62014;SDS011;47970;52.396;9.586;2023-04-29T12:44:04;8.23;;;3.90;;
62014;SDS011;47970;52.396;9.586;2023-04-29T12:46:33;7.20;;;3.47;;
62014;SDS011;47970;52.396;9.586;2023-04-29T12:49:00;4.95;;;3.42;;
62014;SDS011;47970;52.396;9.586;2023-04-29T12:51:25;6.75;;;3.80;;
62014;SDS011;47970;52.396;9.586;2023-04-29T12:53:51;5.53;;;3.40;;
62014;SDS011;47970;52.396;9.586;2023-04-29T12:56:16;12.20;;;3.88;;
62014;SDS011;47970;52.396;9.586;2023-04-29T12:58:42;10.80;;;3.53;;
62014;SDS011;47970;52.396;9.586;2023-04-29T13:01:07;7.77;;;3.87;;
62014;SDS011;47970;52.396;9.586;2023-04-29T13:03:32;7.73;;;3.77;;
62014;SDS011;47970;52.396;9.586;2023-04-29T13:05:58;6.80;;;3.80;;
62014;SDS011;47970;52.396;9.586;2023-04-29T13:08:23;7.15;;;3.90;;
62014;SDS011;47970;52.396;9.586;2023-04-29T13:10:48;6.77;;;3.33;;
62014;SDS011;47970;52.396;9.586;2023-04-29T13:13:13;6.93;;;3.93;;
62014;SDS011;47970;52.396;9.586;2023-04-29T13:15:38;6.07;;;3.40;;
62014;SDS011;47970;52.396;9.586;2023-04-29T13:18:04;7.82;;;3.65;;
62014;SDS011;47970;52.396;9.586;2023-04-29T13:20:29;5.78;;;3.15;;
62014;SDS011;47970;52.396;9.586;2023-04-29T13:22:55;6.32;;;3.08;;
62014;SDS011;47970;52.396;9.586;2023-04-29T13:25:20;6.10;;;2.80;;
62014;SDS011;47970;52.396;9.586;2023-04-29T13:27:45;6.33;;;2.70;;
62014;SDS011;47970;52.396;9.586;2023-04-29T13:30:11;4.53;;;2.60;;
62014;SDS011;47970;52.396;9.586;2023-04-29T13:32:36;6.90;;;2.95;;
62014;SDS011;47970;52.396;9.586;2023-04-29T13:35:03;12.18;;;3.30;;
62014;SDS011;47970;52.396;9.586;2023-04-29T13:37:28;6.55;;;3.70;;
62014;SDS011;47970;52.396;9.586;2023-04-29T13:39:53;7.13;;;3.60;;
62014;SDS011;47970;52.396;9.586;2023-04-29T13:42:18;7.50;;;3.70;;
62014;SDS011;47970;52.396;9.586;2023-04-29T13:44:44;7.67;;;4.53;;
62014;SDS011;47970;52.396;9.586;2023-04-29T13:47:12;9.20;;;4.90;;
62014;SDS011;47970;52.396;9.586;2023-04-29T13:49:38;9.77;;;5.75;;
62014;SDS011;47970;52.396;9.586;2023-04-29T13:52:03;12.15;;;5.15;;
62014;SDS011;47970;52.396;9.586;2023-04-29T13:54:28;9.10;;;5.00;;
62014;SDS011;47970;52.396;9.586;2023-04-29T13:56:54;9.63;;;4.60;;
62014;SDS011;47970;52.396;9.586;2023-04-29T13:59:19;11.30;;;4.37;;
62014;SDS011;47970;52.396;9.586;2023-04-29T14:01:44;9.90;;;4.93;;
62014;SDS011;47970;52.396;9.586;2023-04-29T14:04:09;8.55;;;4.32;;
62014;SDS011;47970;52.396;9.586;2023-04-29T14:06:35;10.45;;;4.72;;
62014;SDS011;47970;52.396;9.586;2023-04-29T14:09:00;7.73;;;4.47;;
62014;SDS011;47970;52.396;9.586;2023-04-29T14:11:25;6.88;;;4.32;;
62014;SDS011;47970;52.396;9.586;2023-04-29T14:13:51;9.90;;;4.35;;
62014;SDS011;47970;52.396;9.586;2023-04-29T14:16:16;8.17;;;3.93;;
62014;SDS011;47970;52.396;9.586;2023-04-29T14:18:41;8.43;;;4.20;;
62014;SDS011;47970;52.396;9.586;2023-04-29T14:21:07;8.18;;;4.03;;
62014;SDS011;47970;52.396;9.586;2023-04-29T14:23:32;7.07;;;3.88;;
62014;SDS011;47970;52.396;9.586;2023-04-29T14:25:57;6.17;;;3.47;;
62014;SDS011;47970;52.396;9.586;2023-04-29T14:28:22;8.47;;;4.10;;
62014;SDS011;47970;52.396;9.586;2023-04-29T14:30:48;8.27;;;3.53;;
62014;SDS011;47970;52.396;9.586;2023-04-29T14:33:13;10.70;;;3.80;;
62014;SDS011;47970;52.396;9.586;2023-04-29T14:35:38;6.03;;;3.37;;
62014;SDS011;47970;52.396;9.586;2023-04-29T14:38:03;8.67;;;3.47;;
62014;SDS011;47970;52.396;9.586;2023-04-29T14:40:28;8.13;;;3.63;;
62014;SDS011;47970;52.396;9.586;2023-04-29T14:42:54;6.17;;;3.30;;
62014;SDS011;47970;52.396;9.586;2023-04-29T14:45:19;7.90;;;3.65;;
62014;SDS011;47970;52.396;9.586;2023-04-29T14:47:44;6.57;;;3.75;;
62014;SDS011;47970;52.396;9.586;2023-04-29T14:50:10;5.85;;;3.10;;